Time;durP1;ratioP1;P1;durP2;ratioP2;P2;SDS_P1;SDS_P2;PMS_P1;PMS_P2;Temp;Humidity;BMP_temperature;BMP_pressure;BME280_temperature;BME280_humidity;BME280_pressure;Samples;Min_cycle;Max_cycle;Signal;HPM_P1;HPM_P2
2022/10/15 00:01:53;;;;;;;3.47;1.42;;;;;;;-145.49;100.00;62790.56;4928265;28;20054;-80
2022/10/15 00:04:19;;;;;;;3.92;2.00;;;;;;;-145.49;100.00;62790.56;4950949;28;20030;-81
2022/10/15 00:06:48;;;;;;;2.53;2.33;;;;;;;-145.49;100.00;62790.56;4943740;28;20061;-83
2022/10/15 00:09:18;;;;;;;2.40;2.08;;;;;;;-145.49;100.00;62790.56;4957078;28;20035;-81
2022/10/15 00:11:49;;;;;;;4.40;1.80;;;;;;;-145.49;100.00;62790.56;4970263;28;20039;-81
2022/10/15 00:14:20;;;;;;;2.65;1.70;;;;;;;-145.49;100.00;62790.56;4953462;28;20058;-81
2022/10/15 00:16:51;;;;;;;3.15;1.52;;;;;;;-145.49;100.00;62790.56;4955949;28;20401;-82
2022/10/15 00:19:22;;;;;;;2.47;1.65;;;;;;;-145.49;100.00;62790.56;4953740;28;20516;-82
2022/10/15 00:21:55;;;;;;;1.75;1.60;;;;;;;-145.49;100.00;62790.56;4968735;28;20393;-82
2022/10/15 00:24:31;;;;;;;4.15;2.00;;;;;;;-145.49;100.00;62790.56;4971701;28;20034;-81
2022/10/15 00:26:57;;;;;;;3.00;2.30;;;;;;;-145.49;100.00;62790.56;4970599;28;20066;-81
2022/10/15 00:29:30;;;;;;;2.42;2.00;;;;;;;-145.49;100.00;62790.56;4947468;28;20049;-82
2022/10/15 00:31:56;;;;;;;2.58;2.25;;;;;;;-145.49;100.00;62790.56;4957376;28;20054;-81
2022/10/15 00:34:22;;;;;;;3.20;2.03;;;;;;;-145.49;100.00;62790.56;4964925;28;20042;-81
2022/10/15 00:36:51;;;;;;;9.25;2.13;;;;;;;-145.49;100.00;62790.56;4968301;28;20042;-80
2022/10/15 00:39:19;;;;;;;1.70;1.50;;;;;;;-145.49;100.00;62790.56;4973109;28;20034;-81
2022/10/15 00:41:48;;;;;;;1.85;1.45;;;;;;;-145.49;100.00;62790.56;4973198;28;20041;-80
2022/10/15 00:44:20;;;;;;;1.90;1.70;;;;;;;-145.49;100.00;62790.56;4954043;28;20030;-80
2022/10/15 00:47:15;;;;;;;1.92;1.60;;;;;;;-145.49;100.00;62790.56;4967114;28;20485;-80
2022/10/15 00:49:50;;;;;;;2.85;1.98;;;;;;;-145.49;100.00;62790.56;4926946;28;20047;-82
2022/10/15 00:52:46;;;;;;;2.65;1.92;;;;;;;-145.49;100.00;62790.56;4961400;28;20046;-81
2022/10/15 00:55:27;;;;;;;2.28;2.08;;;;;;;-145.49;100.00;62790.56;4914186;28;20073;-81
2022/10/15 00:58:01;;;;;;;2.72;1.67;;;;;;;-145.49;100.00;62790.56;4982230;28;20034;-81
2022/10/15 01:00:30;;;;;;;2.63;2.15;;;;;;;-145.49;100.00;62790.56;4959128;28;20494;-82
2022/10/15 01:02:59;;;;;;;5.70;2.35;;;;;;;-145.49;100.00;62790.56;4953229;28;20035;-81
2022/10/15 01:05:31;;;;;;;3.92;2.17;;;;;;;-145.49;100.00;62790.56;4970561;28;20031;-83
2022/10/15 01:08:02;;;;;;;2.63;2.42;;;;;;;-145.49;100.00;62790.56;4967352;28;20046;-81
2022/10/15 01:10:42;;;;;;;3.28;2.35;;;;;;;-145.49;100.00;62790.56;4956562;28;20039;-81
2022/10/15 01:13:34;;;;;;;2.13;1.85;;;;;;;-145.49;100.00;62790.56;4955917;28;20037;-81
2022/10/15 01:16:13;;;;;;;2.58;2.00;;;;;;;-145.49;100.00;62790.56;4934626;29;20389;-82
2022/10/15 01:18:54;;;;;;;2.47;2.00;;;;;;;-145.49;100.00;62790.56;4973495;28;20042;-82
2022/10/15 01:21:32;;;;;;;2.55;1.63;;;;;;;-145.49;100.00;62790.56;4955824;28;20035;-82
2022/10/15 01:24:27;;;;;;;6.03;2.13;;;;;;;-145.49;100.00;62790.56;4970104;28;20386;-81
2022/10/15 01:27:02;;;;;;;2.78;1.50;;;;;;;-145.49;100.00;62790.56;4968460;28;20051;-81
2022/10/15 01:29:51;;;;;;;3.53;2.58;;;;;;;-145.49;100.00;62790.56;4949031;28;20043;-81
2022/10/15 01:32:29;;;;;;;2.10;1.50;;;;;;;-145.49;100.00;62790.56;4966225;28;20038;-82
2022/10/15 01:35:03;;;;;;;3.67;2.03;;;;;;;-145.49;100.00;62790.56;4958751;28;20038;-83
2022/10/15 01:37:40;;;;;;;3.15;1.98;;;;;;;-145.49;100.00;62790.56;4952770;28;20050;-83
2022/10/15 01:40:18;;;;;;;1.88;1.40;;;;;;;-145.49;100.00;62790.56;4954352;28;20058;-82
2022/10/15 01:43:01;;;;;;;6.55;2.17;;;;;;;-145.49;100.00;62790.56;4947625;28;20043;-83
2022/10/15 01:45:48;;;;;;;3.42;1.77;;;;;;;-145.49;100.00;62790.56;4965405;28;20042;-81
2022/10/15 01:48:28;;;;;;;2.60;1.67;;;;;;;-145.49;100.00;62790.56;4967438;28;20039;-82
2022/10/15 01:51:00;;;;;;;2.22;1.35;;;;;;;-145.49;100.00;62790.56;4978786;28;20023;-83
2022/10/15 01:53:33;;;;;;;3.53;1.58;;;;;;;-145.49;100.00;62790.56;4952657;28;20050;-82
2022/10/15 01:56:07;;;;;;;2.78;1.42;;;;;;;-145.49;100.00;62790.56;4974573;28;20052;-83
2022/10/15 01:58:41;;;;;;;1.77;1.48;;;;;;;-145.49;100.00;62790.56;4940951;28;20054;-84
2022/10/15 02:01:09;;;;;;;1.13;0.90;;;;;;;-145.49;100.00;62790.56;4936799;28;20039;-81
2022/10/15 02:03:49;;;;;;;3.58;1.10;;;;;;;-145.49;100.00;62790.56;4950346;28;20035;-84
2022/10/15 02:06:31;;;;;;;1.27;0.90;;;;;;;-145.49;100.00;62790.56;4937235;28;20050;-81
2022/10/15 02:09:19;;;;;;;1.75;1.10;;;;;;;-145.49;100.00;62790.56;4953901;28;20042;-83
2022/10/15 02:12:07;;;;;;;0.82;0.82;;;;;;;-145.49;100.00;62790.56;4898406;28;20043;-82
2022/10/15 02:14:49;;;;;;;1.00;0.90;;;;;;;-145.49;100.00;62790.56;4967106;28;20039;-82
2022/10/15 02:17:30;;;;;;;0.70;0.70;;;;;;;-145.49;100.00;62790.56;4935970;28;20050;-82
2022/10/15 02:20:13;;;;;;;1.45;0.65;;;;;;;-145.49;100.00;62790.56;4962313;28;20531;-82
2022/10/15 02:22:53;;;;;;;0.65;0.50;;;;;;;-145.49;100.00;62790.56;4966291;28;20042;-82
2022/10/15 02:25:27;;;;;;;0.82;0.55;;;;;;;-145.49;100.00;62790.56;4969723;28;20492;-83
2022/10/15 02:28:02;;;;;;;0.50;0.50;;;;;;;-145.49;100.00;62790.56;4964376;28;20060;-81
2022/10/15 02:30:30;;;;;;;0.93;0.80;;;;;;;-145.49;100.00;62790.56;4950093;28;20050;-82
2022/10/15 02:32:58;;;;;;;0.73;0.55;;;;;;;-145.49;100.00;62790.56;4970389;28;20054;-81
2022/10/15 02:35:31;;;;;;;0.63;0.60;;;;;;;-145.49;100.00;62790.56;4937244;28;20038;-83
2022/10/15 02:38:06;;;;;;;1.85;1.02;;;;;;;-145.49;100.00;62790.56;4956004;28;20065;-83
2022/10/15 02:40:34;;;;;;;0.80;0.65;;;;;;;-145.49;100.00;62790.56;4955792;28;20038;-82
2022/10/15 02:43:08;;;;;;;1.08;0.55;;;;;;;-145.49;100.00;62790.56;4951546;28;20038;-82
2022/10/15 02:45:37;;;;;;;1.10;0.70;;;;;;;-145.49;100.00;62790.56;4947712;28;20038;-82
2022/10/15 02:48:08;;;;;;;0.70;0.55;;;;;;;-145.49;100.00;62790.56;4952961;28;20056;-81
2022/10/15 02:50:38;;;;;;;2.10;0.50;;;;;;;-145.49;100.00;62790.56;4955935;28;20043;-82
2022/10/15 02:53:06;;;;;;;0.80;0.60;;;;;;;-145.49;100.00;62790.56;4962645;28;20031;-83
2022/10/15 02:55:37;;;;;;;0.90;0.65;;;;;;;-145.49;100.00;62790.56;4943536;28;20027;-82
2022/10/15 02:58:05;;;;;;;0.40;0.30;;;;;;;-145.49;100.00;62790.56;4953237;28;20039;-81
2022/10/15 03:00:31;;;;;;;4.00;0.43;;;;;;;-145.49;100.00;62790.56;4938128;28;20054;-82
2022/10/15 03:03:03;;;;;;;1.05;0.50;;;;;;;-145.49;100.00;62790.56;4959132;28;20030;-81
2022/10/15 03:05:35;;;;;;;1.83;0.70;;;;;;;-145.49;100.00;62790.56;4965337;28;20480;-82
2022/10/15 03:08:06;;;;;;;1.45;0.47;;;;;;;-145.49;100.00;62790.56;4967645;28;20042;-83
2022/10/15 03:10:37;;;;;;;1.27;0.50;;;;;;;-145.49;100.00;62790.56;4939791;28;20034;-83
2022/10/15 03:13:08;;;;;;;1.20;0.57;;;;;;;-145.49;100.00;62790.56;4951454;28;20050;-83
2022/10/15 03:15:43;;;;;;;0.82;0.52;;;;;;;-145.49;100.00;62790.56;4966944;28;20041;-83
2022/10/15 03:18:14;;;;;;;4.68;0.95;;;;;;;-145.49;100.00;62790.56;4951185;28;20034;-83
2022/10/15 03:20:43;;;;;;;1.20;0.93;;;;;;;-145.49;100.00;62790.56;4941998;28;20520;-82
2022/10/15 03:23:09;;;;;;;7.50;1.13;;;;;;;-145.49;100.00;62790.56;4975624;28;20034;-82
2022/10/15 03:25:36;;;;;;;2.15;0.60;;;;;;;-145.49;100.00;62790.56;4965098;28;20393;-80
2022/10/15 03:28:08;;;;;;;0.80;0.50;;;;;;;-145.49;100.00;62790.56;4962378;28;20035;-80
2022/10/15 03:30:41;;;;;;;8.40;0.93;;;;;;;-145.49;100.00;62790.56;4937629;28;20034;-80
2022/10/15 03:33:10;;;;;;;2.83;0.45;;;;;;;-145.49;100.00;62790.56;4961238;28;20045;-81
2022/10/15 03:35:40;;;;;;;1.95;0.50;;;;;;;-145.49;100.00;62790.56;4975939;28;20039;-82
2022/10/15 03:38:12;;;;;;;2.10;0.50;;;;;;;-145.49;100.00;62790.56;4953301;28;20085;-81
2022/10/15 03:40:42;;;;;;;;;;;;;;;-145.49;100.00;62790.56;4971225;28;20030;-81
2022/10/15 03:43:17;;;;;;;0.43;0.40;;;;;;;-145.49;100.00;62790.56;4958126;28;19914;-84
2022/10/15 03:45:48;;;;;;;0.85;0.85;;;;;;;-145.49;100.00;62790.56;4948809;28;20045;-82
2022/10/15 03:48:20;;;;;;;0.55;0.43;;;;;;;-145.49;100.00;62790.56;4962933;28;20393;-81
2022/10/15 03:50:49;;;;;;;0.52;0.40;;;;;;;-145.49;100.00;62790.56;4969921;28;20485;-81
2022/10/15 03:53:15;;;;;;;1.52;0.50;;;;;;;-145.49;100.00;62790.56;4939600;28;20045;-82
2022/10/15 03:55:46;;;;;;;2.22;0.98;;;;;;;-145.49;100.00;62790.56;4937782;28;20035;-81
2022/10/15 03:58:14;;;;;;;2.03;1.42;;;;;;;-145.49;100.00;62790.56;4970903;28;20432;-81
2022/10/15 04:00:50;;;;;;;0.43;0.30;;;;;;;-145.49;100.00;62790.56;4939176;28;20035;-80
2022/10/15 04:03:17;;;;;;;1.35;0.73;;;;;;;-145.49;100.00;62790.56;4964247;28;20027;-81
2022/10/15 04:05:49;;;;;;;0.60;0.40;;;;;;;-145.49;100.00;62790.56;4973302;28;20480;-81
2022/10/15 04:08:18;;;;;;;;;;;;;;;-145.49;100.00;62790.56;4945383;28;20055;-83
2022/10/15 04:10:49;;;;;;;1.48;0.40;;;;;;;-145.49;100.00;62790.56;4970935;28;19914;-81
2022/10/15 04:13:18;;;;;;;3.35;0.45;;;;;;;-145.49;100.00;62790.56;4953530;28;20031;-82
2022/10/15 04:15:44;;;;;;;0.80;0.52;;;;;;;-145.49;100.00;62790.56;4958268;28;20046;-83
2022/10/15 04:18:14;;;;;;;0.43;0.40;;;;;;;-145.49;100.00;62790.56;4964358;28;20520;-83
2022/10/15 04:20:48;;;;;;;0.60;0.30;;;;;;;-145.49;100.00;62790.56;4942484;28;20045;-83
2022/10/15 04:23:22;;;;;;;1.45;0.70;;;;;;;-145.49;100.00;62790.56;4954940;28;20031;-83
2022/10/15 04:26:12;;;;;;;0.52;0.50;;;;;;;-145.49;100.00;62790.56;4971623;28;20030;-82
2022/10/15 04:28:46;;;;;;;1.30;0.50;;;;;;;-145.49;100.00;62790.56;4955920;28;20042;-81
2022/10/15 04:31:15;;;;;;;2.15;0.60;;;;;;;-145.49;100.00;62790.56;4957039;28;20536;-82
2022/10/15 04:33:41;;;;;;;0.50;0.50;;;;;;;-145.49;100.00;62790.56;4953324;28;20042;-83
2022/10/15 04:36:11;;;;;;;0.80;0.47;;;;;;;-145.49;100.00;62790.56;4955719;28;20030;-83
2022/10/15 04:38:57;;;;;;;0.38;0.38;;;;;;;-145.49;100.00;62790.56;4959144;28;20053;-84
2022/10/15 04:41:39;;;;;;;0.32;0.20;;;;;;;-145.49;100.00;62790.56;4957322;28;20031;-85
2022/10/15 04:44:30;;;;;;;2.28;0.70;;;;;;;-145.49;100.00;62790.56;4947118;28;20060;-84
2022/10/15 04:47:00;;;;;;;0.60;0.30;;;;;;;-145.49;100.00;62790.56;4958035;28;20031;-83
2022/10/15 04:49:41;;;;;;;2.35;0.75;;;;;;;-145.49;100.00;62790.56;4954569;28;20039;-83
2022/10/15 04:52:27;;;;;;;3.03;0.47;;;;;;;-145.49;100.00;62790.56;4952659;28;20047;-82
2022/10/15 04:55:08;;;;;;;0.45;0.30;;;;;;;-145.49;100.00;62790.56;4943792;28;20396;-82
2022/10/15 04:57:37;;;;;;;0.85;0.40;;;;;;;-145.49;100.00;62790.56;4967116;28;20030;-83
2022/10/15 05:00:06;;;;;;;1.17;0.60;;;;;;;-145.49;100.00;62790.56;4945656;28;20042;-81
2022/10/15 05:02:35;;;;;;;0.50;0.40;;;;;;;-145.49;100.00;62790.56;4970821;28;20034;-82
2022/10/15 05:05:19;;;;;;;2.28;0.30;;;;;;;-145.49;100.00;62790.56;4977085;28;20034;-81
2022/10/15 05:07:51;;;;;;;0.85;0.60;;;;;;;-145.49;100.00;62790.56;4974640;28;20042;-81
2022/10/15 05:10:20;;;;;;;2.10;0.50;;;;;;;-145.49;100.00;62790.56;4960302;28;20034;-81
2022/10/15 05:12:54;;;;;;;1.10;0.57;;;;;;;-145.49;100.00;62790.56;4952879;28;20043;-81
2022/10/15 05:15:32;;;;;;;0.63;0.30;;;;;;;-145.49;100.00;62790.56;4934680;28;20038;-80
2022/10/15 05:17:59;;;;;;;1.05;0.50;;;;;;;-145.49;100.00;62790.56;4973414;28;20034;-83
2022/10/15 05:20:32;;;;;;;;;;;;;;;-145.49;100.00;62790.56;4955939;28;20034;-80
2022/10/15 05:22:58;;;;;;;0.68;0.68;;;;;;;-145.49;100.00;62790.56;4951116;28;19918;-82
2022/10/15 05:25:35;;;;;;;0.98;0.60;;;;;;;-145.49;100.00;62790.56;4932363;29;20035;-83
2022/10/15 05:28:03;;;;;;;1.08;0.45;;;;;;;-145.49;100.00;62790.56;4954347;28;20041;-81
2022/10/15 05:30:30;;;;;;;0.80;0.55;;;;;;;-145.49;100.00;62790.56;4979125;28;20030;-81
2022/10/15 05:32:59;;;;;;;1.70;0.60;;;;;;;-145.49;100.00;62790.56;4947276;28;20038;-80
2022/10/15 05:35:35;;;;;;;0.75;0.45;;;;;;;-145.49;100.00;62790.56;4952551;28;20031;-83
2022/10/15 05:38:06;;;;;;;;;;;;;;;-145.49;100.00;62790.56;4954807;28;20034;-83
2022/10/15 05:40:32;;;;;;;1.83;1.00;;;;;;;-145.49;100.00;62790.56;4960088;28;19925;-83
2022/10/15 05:43:14;;;;;;;0.52;0.40;;;;;;;-145.49;100.00;62790.56;4952635;28;20031;-82
2022/10/15 05:45:45;;;;;;;2.08;0.70;;;;;;;-145.49;100.00;62790.56;4968800;23;20389;-75
2022/10/15 05:48:16;;;;;;;2.40;1.10;;;;;;;-145.49;100.00;62790.56;4961431;28;20050;-75
2022/10/15 05:50:44;;;;;;;;;;;;;;;-145.49;100.00;62790.56;4960246;28;20489;-75
2022/10/15 05:53:17;;;;;;;1.30;1.20;;;;;;;-145.49;100.00;62790.56;4963413;28;19926;-75
2022/10/15 05:55:45;;;;;;;4.30;1.08;;;;;;;-145.49;100.00;62790.56;4951562;28;20421;-75
2022/10/15 05:58:11;;;;;;;2.78;1.45;;;;;;;-145.49;100.00;62790.56;4967327;28;20046;-75
2022/10/15 06:00:41;;;;;;;2.60;1.08;;;;;;;-145.49;100.00;62790.56;4969417;28;20031;-74
2022/10/15 06:03:13;;;;;;;2.50;1.13;;;;;;;-145.49;100.00;62790.56;4963077;28;20022;-75
2022/10/15 06:05:39;;;;;;;1.40;0.98;;;;;;;-145.49;100.00;62790.56;4968964;28;20038;-74
2022/10/15 06:08:08;;;;;;;1.13;0.65;;;;;;;-145.49;100.00;62790.56;4967377;28;20038;-75
2022/10/15 06:10:36;;;;;;;1.17;1.05;;;;;;;-145.49;100.00;62790.56;4968370;28;20636;-76
2022/10/15 06:13:03;;;;;;;1.30;1.10;;;;;;;-145.49;100.00;62790.56;4965791;28;20034;-75
2022/10/15 06:15:32;;;;;;;1.48;1.20;;;;;;;-145.49;100.00;62790.56;4968627;28;20031;-75
2022/10/15 06:17:59;;;;;;;1.38;0.90;;;;;;;-145.49;100.00;62790.56;4952064;28;20401;-75
2022/10/15 06:20:30;;;;;;;2.72;1.00;;;;;;;-145.49;100.00;62790.56;4969751;28;20042;-74
2022/10/15 06:23:01;;;;;;;1.77;1.05;;;;;;;-145.49;100.00;62790.56;4972256;28;20031;-74
2022/10/15 06:25:35;;;;;;;1.48;1.00;;;;;;;-145.49;100.00;62790.56;4970853;28;20040;-74
2022/10/15 06:28:03;;;;;;;2.53;1.02;;;;;;;-145.49;100.00;62790.56;4937301;28;20046;-74
2022/10/15 06:30:43;;;;;;;1.33;0.90;;;;;;;-145.49;100.00;62790.56;4970525;28;20041;-74
2022/10/15 06:33:15;;;;;;;2.17;1.02;;;;;;;-145.49;100.00;62790.56;4972924;28;20038;-74
2022/10/15 06:35:43;;;;;;;1.45;0.90;;;;;;;-145.49;100.00;62790.56;4973239;28;20903;-73
2022/10/15 06:38:12;;;;;;;1.85;1.08;;;;;;;-145.49;100.00;62790.56;4973087;28;20043;-74
2022/10/15 06:40:41;;;;;;;3.13;0.90;;;;;;;-145.49;100.00;62790.56;4971180;28;20412;-74
2022/10/15 06:43:13;;;;;;;1.23;0.77;;;;;;;-145.49;100.00;62790.56;4974710;28;20035;-74
2022/10/15 06:45:44;;;;;;;2.10;1.08;;;;;;;-145.49;100.00;62790.56;4969225;28;115513;-73
2022/10/15 06:48:21;;;;;;;1.60;1.10;;;;;;;-145.49;100.00;62790.56;4972969;28;20042;-74
2022/10/15 06:50:47;;;;;;;1.17;0.65;;;;;;;-145.49;100.00;62790.56;4956079;28;20408;-74
2022/10/15 06:53:15;;;;;;;1.42;0.70;;;;;;;-145.49;100.00;62790.56;4988246;28;20035;-74
2022/10/15 06:55:41;;;;;;;2.08;0.80;;;;;;;-145.49;100.00;62790.56;4945897;28;20039;-73
2022/10/15 06:58:13;;;;;;;1.50;1.02;;;;;;;-145.49;100.00;62790.56;4948466;28;20058;-73
2022/10/15 07:00:41;;;;;;;1.77;1.20;;;;;;;-145.49;100.00;62790.56;4966505;28;20043;-73
2022/10/15 07:03:14;;;;;;;1.20;0.75;;;;;;;-145.49;100.00;62790.56;4972174;28;20035;-73
2022/10/15 07:05:43;;;;;;;1.48;1.30;;;;;;;-145.49;100.00;62790.56;4966423;28;20121;-74
2022/10/15 07:08:14;;;;;;;1.65;1.15;;;;;;;-145.49;100.00;62790.56;4968018;28;20404;-75
2022/10/15 07:10:42;;;;;;;1.58;1.10;;;;;;;-145.49;100.00;62790.56;4968716;28;20046;-75
2022/10/15 07:13:11;;;;;;;0.93;0.70;;;;;;;-145.49;100.00;62790.56;4966164;28;20034;-74
2022/10/15 07:15:37;;;;;;;1.40;1.02;;;;;;;-145.49;100.00;62790.56;4969446;28;20393;-73
2022/10/15 07:18:06;;;;;;;1.08;0.70;;;;;;;-145.49;100.00;62790.56;4967377;28;20482;-73
2022/10/15 07:20:32;;;;;;;1.40;0.80;;;;;;;-145.49;100.00;62790.56;4965023;28;20035;-72
2022/10/15 07:23:00;;;;;;;2.50;1.00;;;;;;;-145.49;100.00;62790.56;4973202;28;20027;-73
2022/10/15 07:25:29;;;;;;;1.33;1.08;;;;;;;-145.49;100.00;62790.56;4969175;28;20042;-74
2022/10/15 07:27:56;;;;;;;1.05;0.70;;;;;;;-145.49;100.00;62790.56;4977721;28;20026;-74
2022/10/15 07:30:26;;;;;;;0.88;0.60;;;;;;;-145.49;100.00;62790.56;4969885;28;20045;-72
2022/10/15 07:33:03;;;;;;;1.95;1.00;;;;;;;-145.49;100.00;62790.56;4969187;28;20046;-73
2022/10/15 07:35:38;;;;;;;1.42;0.75;;;;;;;-145.49;100.00;62790.56;4971017;28;20034;-73
2022/10/15 07:38:04;;;;;;;1.88;1.65;;;;;;;-145.49;100.00;62790.56;4962957;28;20050;-74
2022/10/15 07:40:33;;;;;;;1.77;0.80;;;;;;;-145.49;100.00;62790.56;4970897;28;20039;-74
2022/10/15 07:43:02;;;;;;;2.25;1.70;;;;;;;-145.49;100.00;62790.56;4970639;28;20034;-74
2022/10/15 07:45:35;;;;;;;1.75;1.20;;;;;;;-145.49;100.00;62790.56;4985541;28;20042;-75
2022/10/15 07:48:04;;;;;;;4.47;1.63;;;;;;;-145.49;100.00;62790.56;4952761;28;20038;-74
2022/10/15 07:50:30;;;;;;;1.67;1.10;;;;;;;-145.49;100.00;62790.56;4967689;28;20030;-75
2022/10/15 07:52:59;;;;;;;1.75;1.30;;;;;;;-145.49;100.00;62790.56;4960560;28;20046;-74
2022/10/15 07:55:26;;;;;;;5.10;1.35;;;;;;;-145.49;100.00;62790.56;4961582;28;20046;-74
2022/10/15 07:57:58;;;;;;;1.75;1.15;;;;;;;-145.49;100.00;62790.56;4974094;28;20493;-76
2022/10/15 08:00:29;;;;;;;2.28;1.50;;;;;;;-145.49;100.00;62790.56;4972307;28;20038;-75
2022/10/15 08:02:57;;;;;;;3.40;1.50;;;;;;;-145.49;100.00;62790.56;4972075;28;20050;-74
2022/10/15 08:05:23;;;;;;;3.60;2.22;;;;;;;-145.49;100.00;62790.56;4971186;28;20035;-74
2022/10/15 08:07:54;;;;;;;2.30;2.10;;;;;;;-145.49;100.00;62790.56;4965353;28;20043;-75
2022/10/15 08:10:20;;;;;;;2.28;1.65;;;;;;;-145.49;100.00;62790.56;4986983;28;20046;-74
2022/10/15 08:12:49;;;;;;;1.77;1.58;;;;;;;-145.49;100.00;62790.56;4956102;28;20049;-74
2022/10/15 08:15:17;;;;;;;4.10;2.58;;;;;;;-145.49;100.00;62790.56;4967931;28;20043;-75
2022/10/15 08:17:46;;;;;;;3.33;2.17;;;;;;;-145.49;100.00;62790.56;4972671;28;20485;-75
2022/10/15 08:20:14;;;;;;;2.70;1.77;;;;;;;-145.49;100.00;62790.56;4969385;28;20039;-75
2022/10/15 08:22:40;;;;;;;2.33;1.90;;;;;;;-145.49;100.00;62790.56;4971474;28;20046;-76
2022/10/15 08:25:10;;;;;;;3.75;2.15;;;;;;;-145.49;100.00;62790.56;4957697;28;20043;-75
2022/10/15 08:27:38;;;;;;;2.53;1.73;;;;;;;-145.49;100.00;62790.56;4968597;28;20042;-75
2022/10/15 08:30:10;;;;;;;3.40;2.15;;;;;;;-145.49;100.00;62790.56;4950750;28;20043;-74
2022/10/15 08:32:36;;;;;;;2.50;1.58;;;;;;;-145.49;100.00;62790.56;4971321;28;20401;-74
2022/10/15 08:35:02;;;;;;;2.80;1.88;;;;;;;-145.49;100.00;62790.56;4965696;28;20050;-74
2022/10/15 08:37:31;;;;;;;1.80;1.40;;;;;;;-145.49;100.00;62790.56;4972505;28;20030;-74
2022/10/15 08:40:00;;;;;;;3.50;1.77;;;;;;;-145.49;100.00;62790.56;4962519;28;20035;-74
2022/10/15 08:42:37;;;;;;;2.20;2.00;;;;;;;-145.49;100.00;62790.56;4970047;28;20039;-74
2022/10/15 08:45:13;;;;;;;3.47;1.52;;;;;;;-145.49;100.00;62790.56;4963654;28;20046;-77
2022/10/15 08:47:55;;;;;;;3.17;1.92;;;;;;;-145.49;100.00;62790.56;4983423;28;20038;-75
2022/10/15 08:50:39;;;;;;;2.88;2.28;;;;;;;-145.49;100.00;62790.56;4967568;28;20047;-75
2022/10/15 08:53:19;;;;;;;3.25;2.20;;;;;;;-145.49;100.00;62790.56;4964891;28;20401;-77
2022/10/15 08:55:49;;;;;;;2.70;2.05;;;;;;;-145.49;100.00;62790.56;4979281;28;20050;-74
2022/10/15 08:58:25;;;;;;;3.38;3.00;;;;;;;-145.49;100.00;62790.56;4963530;28;20043;-74
2022/10/15 09:00:58;;;;;;;3.40;2.13;;;;;;;-145.49;100.00;62790.56;4962868;28;20043;-75
2022/10/15 09:03:32;;;;;;;2.28;1.85;;;;;;;;;;5092421;27;20160;-75
2022/10/15 09:06:13;;;;;;;2.63;2.17;;;;;;;;;;5074111;28;20029;-77
2022/10/15 09:08:46;;;;;;;2.88;2.55;;;;;;;;;;5067288;28;20037;-74
2022/10/15 09:11:22;;;;;;;2.30;2.10;;;;;;;;;;5086079;28;20029;-73
2022/10/15 09:13:50;;;;;;;5.95;4.80;;;;;;;;;;5082943;28;20032;-73
2022/10/15 09:16:42;;;;;;;10.15;3.38;;;;;;;;;;5083921;28;20039;-73
2022/10/15 09:19:16;;;;;;;6.07;3.15;;;;;;;;;;5078640;28;20053;-73
2022/10/15 09:21:42;;;;;;;6.03;2.55;;;;;;;;;;5084847;28;20043;-74
2022/10/15 09:24:09;;;;;;;4.05;2.25;;;;;;;;;;5086155;28;20100;-74
2022/10/15 09:26:55;;;;;;;2.75;1.85;;;;;;;;;;5087514;28;20037;-73
2022/10/15 09:29:28;;;;;;;2.53;2.05;;;;;;;;;;5080431;28;20888;-73
2022/10/15 09:32:04;;;;;;;2.80;1.50;;;;;;;;;;5084410;28;20050;-74
2022/10/15 09:34:40;;;;;;;2.17;1.50;;;;;;;;;;5083428;28;20024;-74
2022/10/15 09:37:14;;;;;;;2.80;1.63;;;;;;;;;;5087015;28;20028;-74
2022/10/15 09:39:57;;;;;;;10.20;1.60;;;;;;;;;;5084437;28;20028;-74
2022/10/15 09:42:34;;;;;;;2.17;1.45;;;;;;;;;;5082190;28;20036;-73
2022/10/15 09:45:07;;;;;;;3.75;1.63;;;;;;;;;;5078103;28;20383;-75
2022/10/15 09:47:36;;;;;;;4.28;1.60;;;;;;;;;;5084081;28;20474;-74
2022/10/15 09:50:07;;;;;;;2.03;1.83;;;;;;;;;;5085423;28;20035;-73
2022/10/15 09:52:48;;;;;;;1.90;1.52;;;;;;;;;;5078834;28;20024;-74
2022/10/15 09:55:31;;;;;;;3.40;1.50;;;;;;;;;;5081123;28;20043;-74
2022/10/15 09:58:07;;;;;;;5.25;1.40;;;;;;;;;;5081189;28;20032;-73
2022/10/15 10:00:32;;;;;;;;;;;;;;;;;;5063580;28;20036;-74
2022/10/15 10:03:06;;;;;;;19.38;12.57;;;;;;;;;;5081620;28;20361;-75
2022/10/15 10:05:35;;;;;;;6.45;5.80;;;;;;;;;;5066309;28;20031;-75
2022/10/15 10:08:17;;;;;;;5.05;2.47;;;;;;;;;;5084227;28;20222;-75
2022/10/15 10:10:52;;;;;;;4.20;2.25;;;;;;;;;;5084357;28;20051;-75
2022/10/15 10:13:22;;;;;;;1.73;1.48;;;;;;;;;;5084874;28;20028;-75
2022/10/15 10:15:52;;;;;;;2.95;1.80;;;;;;;;;;5072889;28;20055;-76
2022/10/15 10:18:23;;;;;;;3.47;2.58;;;;;;;;;;5054377;28;20040;-75
2022/10/15 10:20:57;;;;;;;2.95;1.35;;;;;;;;;;5068687;28;20044;-76
2022/10/15 10:23:35;;;;;;;1.40;1.30;;;;;;;;;;5073806;28;20047;-75
2022/10/15 10:26:07;;;;;;;1.73;1.63;;;;;;;;;;5073367;28;20024;-76
2022/10/15 10:28:35;;;;;;;1.73;1.47;;;;;;;;;;5071713;28;20040;-75
2022/10/15 10:31:07;;;;;;;2.20;1.50;;;;;;;;;;5067449;28;20028;-75
2022/10/15 10:33:49;;;;;;;4.35;2.13;;;;;;;;;;5054606;28;20033;-75
2022/10/15 10:36:21;;;;;;;3.00;1.65;;;;;;;;;;5050806;28;20029;-75
2022/10/15 10:38:55;;;;;;;3.33;1.75;;;;;;;;;;5071542;28;20032;-75
2022/10/15 10:41:21;;;;;;;6.07;5.47;;;;;;;;;;5070449;28;20025;-75
2022/10/15 10:43:54;;;;;;;2.75;2.55;;;;;;;;;;5038478;28;20056;-75
2022/10/15 10:46:21;;;;;;;2.88;2.00;;;;;;;;;;5066923;28;20025;-74
2022/10/15 10:48:48;;;;;;;1.70;1.33;;;;;;;;;;5051470;28;20028;-74
2022/10/15 10:51:15;;;;;;;2.55;1.98;;;;;;;;;;5068016;28;20038;-75
2022/10/15 10:53:52;;;;;;;4.07;2.45;;;;;;;;;;5070219;28;20040;-75
2022/10/15 10:56:25;;;;;;;2.17;1.45;;;;;;;;;;5072870;28;20036;-75
2022/10/15 10:58:58;;;;;;;1.58;1.42;;;;;;;;;;5057180;28;20032;-75
2022/10/15 11:01:26;;;;;;;2.30;1.17;;;;;;;;;;5067867;28;20410;-74
2022/10/15 11:03:57;;;;;;;4.40;1.50;;;;;;;;;;5067139;28;20381;-74
2022/10/15 11:06:35;;;;;;;1.98;1.30;;;;;;;;;;5072524;28;20025;-74
2022/10/15 11:09:03;;;;;;;2.63;1.58;;;;;;;;;;5045694;28;20032;-75
2022/10/15 11:11:34;;;;;;;1.98;1.30;;;;;;;;;;5066216;28;20027;-75
2022/10/15 11:14:19;;;;;;;2.53;1.00;;;;;;;;;;5081603;28;20025;-75
2022/10/15 11:17:23;;;;;;;2.38;1.10;;;;;;;;;;5071110;28;20024;-75
2022/10/15 11:19:49;;;;;;;3.03;1.38;;;;;;;;;;5030047;28;20395;-75
2022/10/15 11:22:18;;;;;;;1.80;0.80;;;;;;;;;;5038004;28;20033;-76
2022/10/15 11:25:04;;;;;;;1.65;1.08;;;;;;;;;;5044991;28;20036;-74
2022/10/15 11:27:41;;;;;;;3.80;1.10;;;;;;;;;;5062331;28;20040;-74
2022/10/15 11:30:28;;;;;;;2.17;1.55;;;;;;;;;;5065413;28;20364;-77
2022/10/15 11:33:15;;;;;;;2.50;1.20;;;;;;;;;;5067511;28;20044;-75
2022/10/15 11:35:43;;;;;;;2.75;1.08;;;;;;;;;;5068425;28;20037;-74
2022/10/15 11:38:20;;;;;;;2.22;1.00;;;;;;;;;;5066284;28;20039;-74
2022/10/15 11:40:52;;;;;;;1.98;0.95;;;;;;;;;;5069799;28;20394;-75
2022/10/15 11:43:24;;;;;;;3.97;1.00;;;;;;;;;;5064640;28;20390;-74
2022/10/15 11:46:08;;;;;;;2.60;1.08;;;;;;;;;;5075205;22;20053;-82
2022/10/15 11:48:48;;;;;;;5.45;1.52;;;;;;;;;;5033502;28;20510;-83
2022/10/15 11:51:32;;;;;;;3.58;1.48;;;;;;;;;;5048875;28;20025;-83
2022/10/15 11:54:03;;;;;;;;;;;;;;;;;;5051976;28;20032;-83
2022/10/15 11:56:37;;;;;;;1.85;1.33;;;;;;;;;;5050104;28;19931;-83
2022/10/15 11:59:08;;;;;;;6.38;1.25;;;;;;;;;;5052534;28;20047;-83
2022/10/15 12:01:40;;;;;;;1.30;0.98;;;;;;;;;;5050962;28;20036;-84
2022/10/15 12:04:17;;;;;;;1.00;0.80;;;;;;;;;;5079761;28;20382;-82
2022/10/15 12:06:46;;;;;;;2.55;1.23;;;;;;;;;;5070481;28;20037;-81
2022/10/15 12:09:18;;;;;;;1.90;1.55;;;;;;;;;;5071098;28;20032;-82
2022/10/15 12:12:06;;;;;;;5.57;1.48;;;;;;;;;;5072307;28;20035;-82
2022/10/15 12:14:35;;;;;;;4.07;1.67;;;;;;;;;;5078978;28;20029;-82
2022/10/15 12:17:03;;;;;;;1.92;1.23;;;;;;;;;;5071814;28;20024;-81
2022/10/15 12:19:54;;;;;;;2.00;1.33;;;;;;;;;;5071805;28;20033;-84
2022/10/15 12:22:34;;;;;;;2.28;1.13;;;;;;;;;;5065095;28;20485;-82
2022/10/15 12:25:02;;;;;;;4.10;3.22;;;;;;;;;;5078730;28;20036;-82
2022/10/15 12:27:34;;;;;;;3.53;1.83;;;;;;;;;;5070945;28;20032;-82